Pagina principală
METAR-TAF:

METAR-TAF

Aeroporturi :

Shenandoah Municipal Airport

Shenandoah, Iowa, Statele Unite ale Americii

Latitudine: 40-45N, longitudine: 095-25W, elevație: 296 m

Observații meteo curente

Raportul a fost făcut în urmă cu 31 de minute, la 01:15 UTC
Vânt 7 kt de la Nord-vest cu rafale de până la 16 kt
Temperatură 17°C
Umiditate 77%
Presiune 1005 hPa
Vizibilitate: 16.1 km
Nori puțini la o înălțime de 3600 picior
Nori împrăștiați la o înălțime de 4100 picior
Nori fragmentați la o înălțime de 4700 picior

METAR: KSDA 220115Z AUTO 31007G16KT 10SM FEW036 SCT041 BKN047 17/13 A2969 RMK AO2

Ora: 20:46 (01:46 UTC)


TAF: lipsă

Observații și prognoze meteo pentru peste 4.000 de aeroporturi (rapoarte METAR și TAF).

Stațiile disponibile sunt reprezentate pe hartă prin puncte galbene și roșii.

Țineți indicatorul mouse-ului pe punctul dorit pentru a vedea denumirea stației.

Apoi, faceți clic pentru a vedea observațiile și prognozele meteorologice.

Pentru a schimba harta: Pentru mărire, faceți clic pe butoanele verzi cu cruce neagră; pentru micșorare, pe butonul verde cu o liniuță; pentru hărți învecinate, pe săgețile verzi.


METAR-TAF: